sensor_id;sensor_type;location;lat;lon;timestamp;P1;durP1;ratioP1;P2;durP2;ratioP2
8819;SDS011;4446;50.876;4.736;2022-12-07T00:01:48;18.92;;;12.55;;
8819;SDS011;4446;50.876;4.736;2022-12-07T00:04:17;14.93;;;11.90;;
8819;SDS011;4446;50.876;4.736;2022-12-07T00:06:51;18.85;;;13.15;;
8819;SDS011;4446;50.876;4.736;2022-12-07T00:09:20;19.00;;;12.95;;
8819;SDS011;4446;50.876;4.736;2022-12-07T00:11:48;18.70;;;12.40;;
8819;SDS011;4446;50.876;4.736;2022-12-07T00:14:19;17.27;;;12.05;;
8819;SDS011;4446;50.876;4.736;2022-12-07T00:16:48;15.43;;;11.95;;
8819;SDS011;4446;50.876;4.736;2022-12-07T00:19:16;21.75;;;13.30;;
8819;SDS011;4446;50.876;4.736;2022-12-07T00:21:43;17.90;;;13.35;;
8819;SDS011;4446;50.876;4.736;2022-12-07T00:24:12;16.83;;;12.98;;
8819;SDS011;4446;50.876;4.736;2022-12-07T00:26:41;17.42;;;12.80;;
8819;SDS011;4446;50.876;4.736;2022-12-07T00:29:11;17.73;;;13.23;;
8819;SDS011;4446;50.876;4.736;2022-12-07T00:31:42;18.73;;;12.93;;
8819;SDS011;4446;50.876;4.736;2022-12-07T00:34:11;20.52;;;14.32;;
8819;SDS011;4446;50.876;4.736;2022-12-07T00:36:40;18.55;;;14.13;;
8819;SDS011;4446;50.876;4.736;2022-12-07T00:39:10;20.50;;;14.27;;
8819;SDS011;4446;50.876;4.736;2022-12-07T00:41:39;19.90;;;13.88;;
8819;SDS011;4446;50.876;4.736;2022-12-07T00:44:06;20.70;;;14.40;;
8819;SDS011;4446;50.876;4.736;2022-12-07T00:46:35;19.60;;;14.05;;
8819;SDS011;4446;50.876;4.736;2022-12-07T00:49:02;24.90;;;14.05;;
8819;SDS011;4446;50.876;4.736;2022-12-07T00:51:29;19.17;;;14.23;;
8819;SDS011;4446;50.876;4.736;2022-12-07T00:53:56;21.67;;;15.20;;
8819;SDS011;4446;50.876;4.736;2022-12-07T00:56:25;22.30;;;15.07;;
8819;SDS011;4446;50.876;4.736;2022-12-07T00:58:53;18.63;;;14.07;;
8819;SDS011;4446;50.876;4.736;2022-12-07T01:01:22;21.30;;;13.90;;
8819;SDS011;4446;50.876;4.736;2022-12-07T01:03:50;20.60;;;14.60;;
8819;SDS011;4446;50.876;4.736;2022-12-07T01:06:18;18.83;;;14.18;;
8819;SDS011;4446;50.876;4.736;2022-12-07T01:09:03;19.38;;;14.52;;
8819;SDS011;4446;50.876;4.736;2022-12-07T01:11:33;21.55;;;15.20;;
8819;SDS011;4446;50.876;4.736;2022-12-07T01:14:00;20.13;;;15.00;;
8819;SDS011;4446;50.876;4.736;2022-12-07T01:16:29;21.63;;;15.00;;
8819;SDS011;4446;50.876;4.736;2022-12-07T01:18:58;22.20;;;14.77;;
8819;SDS011;4446;50.876;4.736;2022-12-07T01:21:27;20.17;;;15.10;;
8819;SDS011;4446;50.876;4.736;2022-12-07T01:23:56;20.52;;;15.07;;
8819;SDS011;4446;50.876;4.736;2022-12-07T01:26:24;21.48;;;15.15;;
8819;SDS011;4446;50.876;4.736;2022-12-07T01:28:53;18.40;;;13.23;;
8819;SDS011;4446;50.876;4.736;2022-12-07T01:31:22;19.73;;;14.35;;
8819;SDS011;4446;50.876;4.736;2022-12-07T01:33:51;20.33;;;14.82;;
8819;SDS011;4446;50.876;4.736;2022-12-07T01:36:20;18.65;;;14.93;;
8819;SDS011;4446;50.876;4.736;2022-12-07T01:38:54;19.42;;;15.10;;
8819;SDS011;4446;50.876;4.736;2022-12-07T01:41:24;21.45;;;15.63;;
8819;SDS011;4446;50.876;4.736;2022-12-07T01:44:11;21.38;;;15.88;;
8819;SDS011;4446;50.876;4.736;2022-12-07T01:46:43;20.17;;;15.05;;
8819;SDS011;4446;50.876;4.736;2022-12-07T01:49:13;21.05;;;16.08;;
8819;SDS011;4446;50.876;4.736;2022-12-07T01:51:49;21.50;;;15.52;;
8819;SDS011;4446;50.876;4.736;2022-12-07T01:54:20;20.55;;;15.63;;
8819;SDS011;4446;50.876;4.736;2022-12-07T01:56:49;24.30;;;17.50;;
8819;SDS011;4446;50.876;4.736;2022-12-07T01:59:21;27.55;;;17.02;;
8819;SDS011;4446;50.876;4.736;2022-12-07T02:01:51;22.05;;;17.00;;
8819;SDS011;4446;50.876;4.736;2022-12-07T02:04:18;28.77;;;18.83;;
8819;SDS011;4446;50.876;4.736;2022-12-07T02:06:46;26.42;;;18.83;;
8819;SDS011;4446;50.876;4.736;2022-12-07T02:09:14;24.33;;;17.58;;
8819;SDS011;4446;50.876;4.736;2022-12-07T02:11:41;25.38;;;17.48;;
8819;SDS011;4446;50.876;4.736;2022-12-07T02:14:08;24.90;;;18.75;;
8819;SDS011;4446;50.876;4.736;2022-12-07T02:16:38;25.63;;;17.65;;
8819;SDS011;4446;50.876;4.736;2022-12-07T02:19:35;24.67;;;17.90;;
8819;SDS011;4446;50.876;4.736;2022-12-07T02:22:22;28.88;;;18.60;;
8819;SDS011;4446;50.876;4.736;2022-12-07T02:25:07;25.83;;;18.73;;
8819;SDS011;4446;50.876;4.736;2022-12-07T02:27:44;28.45;;;20.02;;
8819;SDS011;4446;50.876;4.736;2022-12-07T02:30:14;30.45;;;20.58;;
8819;SDS011;4446;50.876;4.736;2022-12-07T02:32:44;26.15;;;19.27;;
8819;SDS011;4446;50.876;4.736;2022-12-07T02:35:18;25.77;;;18.10;;
8819;SDS011;4446;50.876;4.736;2022-12-07T02:37:53;25.90;;;18.70;;
8819;SDS011;4446;50.876;4.736;2022-12-07T02:40:29;23.33;;;16.42;;
8819;SDS011;4446;50.876;4.736;2022-12-07T02:43:02;28.70;;;18.92;;
8819;SDS011;4446;50.876;4.736;2022-12-07T02:45:36;24.95;;;19.17;;
8819;SDS011;4446;50.876;4.736;2022-12-07T02:48:07;25.17;;;18.58;;
8819;SDS011;4446;50.876;4.736;2022-12-07T02:50:36;26.13;;;18.63;;
8819;SDS011;4446;50.876;4.736;2022-12-07T02:53:03;27.27;;;18.38;;
8819;SDS011;4446;50.876;4.736;2022-12-07T02:55:33;29.83;;;18.45;;
8819;SDS011;4446;50.876;4.736;2022-12-07T03:01:02;29.17;;;19.45;;
8819;SDS011;4446;50.876;4.736;2022-12-07T03:03:35;30.90;;;20.30;;
8819;SDS011;4446;50.876;4.736;2022-12-07T03:06:07;25.60;;;19.38;;
8819;SDS011;4446;50.876;4.736;2022-12-07T03:08:44;33.30;;;21.15;;
8819;SDS011;4446;50.876;4.736;2022-12-07T03:11:21;29.27;;;21.67;;
8819;SDS011;4446;50.876;4.736;2022-12-07T03:14:01;30.55;;;20.17;;
8819;SDS011;4446;50.876;4.736;2022-12-07T03:16:37;28.33;;;19.63;;
8819;SDS011;4446;50.876;4.736;2022-12-07T03:19:09;25.67;;;18.90;;
8819;SDS011;4446;50.876;4.736;2022-12-07T03:21:40;27.90;;;19.15;;
8819;SDS011;4446;50.876;4.736;2022-12-07T03:24:13;30.02;;;19.90;;
8819;SDS011;4446;50.876;4.736;2022-12-07T03:26:42;28.40;;;19.95;;
8819;SDS011;4446;50.876;4.736;2022-12-07T03:29:15;28.80;;;19.13;;
8819;SDS011;4446;50.876;4.736;2022-12-07T03:31:49;26.27;;;18.80;;
8819;SDS011;4446;50.876;4.736;2022-12-07T03:34:24;27.38;;;19.13;;
8819;SDS011;4446;50.876;4.736;2022-12-07T03:36:57;29.60;;;18.90;;
8819;SDS011;4446;50.876;4.736;2022-12-07T03:39:30;24.67;;;18.48;;
8819;SDS011;4446;50.876;4.736;2022-12-07T03:42:03;28.83;;;18.95;;
8819;SDS011;4446;50.876;4.736;2022-12-07T03:44:33;26.33;;;18.10;;
8819;SDS011;4446;50.876;4.736;2022-12-07T03:47:04;27.63;;;20.05;;
8819;SDS011;4446;50.876;4.736;2022-12-07T03:49:37;30.20;;;19.45;;
8819;SDS011;4446;50.876;4.736;2022-12-07T03:52:09;25.65;;;17.92;;
8819;SDS011;4446;50.876;4.736;2022-12-07T03:54:43;26.50;;;19.02;;
8819;SDS011;4446;50.876;4.736;2022-12-07T03:57:15;28.02;;;18.38;;
8819;SDS011;4446;50.876;4.736;2022-12-07T03:59:47;25.25;;;18.05;;
8819;SDS011;4446;50.876;4.736;2022-12-07T04:02:17;30.27;;;18.55;;
8819;SDS011;4446;50.876;4.736;2022-12-07T04:04:46;27.02;;;18.27;;
8819;SDS011;4446;50.876;4.736;2022-12-07T04:07:15;24.73;;;17.75;;
8819;SDS011;4446;50.876;4.736;2022-12-07T04:09:42;23.30;;;16.98;;
8819;SDS011;4446;50.876;4.736;2022-12-07T04:12:09;28.20;;;17.77;;
8819;SDS011;4446;50.876;4.736;2022-12-07T04:14:36;24.77;;;16.90;;
8819;SDS011;4446;50.876;4.736;2022-12-07T04:17:03;22.67;;;15.57;;
8819;SDS011;4446;50.876;4.736;2022-12-07T04:19:33;25.10;;;16.70;;
8819;SDS011;4446;50.876;4.736;2022-12-07T04:22:01;22.15;;;15.68;;
8819;SDS011;4446;50.876;4.736;2022-12-07T04:24:29;21.02;;;14.90;;
8819;SDS011;4446;50.876;4.736;2022-12-07T04:26:58;22.02;;;14.60;;
8819;SDS011;4446;50.876;4.736;2022-12-07T04:29:25;21.65;;;15.13;;
8819;SDS011;4446;50.876;4.736;2022-12-07T04:31:52;22.17;;;13.73;;
8819;SDS011;4446;50.876;4.736;2022-12-07T04:34:20;19.67;;;14.18;;
8819;SDS011;4446;50.876;4.736;2022-12-07T04:36:48;18.10;;;13.65;;
8819;SDS011;4446;50.876;4.736;2022-12-07T04:39:19;19.67;;;13.90;;
8819;SDS011;4446;50.876;4.736;2022-12-07T04:41:48;18.17;;;12.88;;
8819;SDS011;4446;50.876;4.736;2022-12-07T04:44:16;21.13;;;14.38;;
8819;SDS011;4446;50.876;4.736;2022-12-07T04:46:44;19.95;;;14.60;;
8819;SDS011;4446;50.876;4.736;2022-12-07T04:49:12;19.83;;;13.82;;
8819;SDS011;4446;50.876;4.736;2022-12-07T04:51:40;20.00;;;14.00;;
8819;SDS011;4446;50.876;4.736;2022-12-07T04:54:10;21.45;;;15.07;;
8819;SDS011;4446;50.876;4.736;2022-12-07T04:56:37;20.63;;;14.32;;
8819;SDS011;4446;50.876;4.736;2022-12-07T04:59:06;21.13;;;15.02;;
8819;SDS011;4446;50.876;4.736;2022-12-07T05:01:33;22.08;;;14.57;;
8819;SDS011;4446;50.876;4.736;2022-12-07T05:04:01;20.25;;;14.00;;
8819;SDS011;4446;50.876;4.736;2022-12-07T05:06:28;20.58;;;14.73;;
8819;SDS011;4446;50.876;4.736;2022-12-07T05:08:55;19.83;;;14.85;;
8819;SDS011;4446;50.876;4.736;2022-12-07T05:11:25;20.55;;;13.82;;
8819;SDS011;4446;50.876;4.736;2022-12-07T05:14:05;20.58;;;14.18;;
8819;SDS011;4446;50.876;4.736;2022-12-07T05:16:34;23.55;;;14.10;;
8819;SDS011;4446;50.876;4.736;2022-12-07T05:19:02;20.08;;;14.65;;
8819;SDS011;4446;50.876;4.736;2022-12-07T05:21:29;19.02;;;13.90;;
8819;SDS011;4446;50.876;4.736;2022-12-07T05:23:56;18.85;;;13.18;;
8819;SDS011;4446;50.876;4.736;2022-12-07T05:26:25;22.00;;;14.63;;
8819;SDS011;4446;50.876;4.736;2022-12-07T05:28:52;23.70;;;15.45;;
8819;SDS011;4446;50.876;4.736;2022-12-07T05:31:19;23.25;;;14.80;;
8819;SDS011;4446;50.876;4.736;2022-12-07T05:33:46;22.65;;;15.93;;
8819;SDS011;4446;50.876;4.736;2022-12-07T05:36:16;22.20;;;16.10;;
8819;SDS011;4446;50.876;4.736;2022-12-07T05:38:45;25.15;;;14.85;;
8819;SDS011;4446;50.876;4.736;2022-12-07T05:41:13;22.48;;;16.02;;
8819;SDS011;4446;50.876;4.736;2022-12-07T05:44:01;23.05;;;15.63;;
8819;SDS011;4446;50.876;4.736;2022-12-07T05:46:32;23.42;;;15.98;;
8819;SDS011;4446;50.876;4.736;2022-12-07T05:49:00;25.67;;;16.45;;
8819;SDS011;4446;50.876;4.736;2022-12-07T05:51:28;24.77;;;16.52;;
8819;SDS011;4446;50.876;4.736;2022-12-07T05:53:55;28.15;;;16.98;;
8819;SDS011;4446;50.876;4.736;2022-12-07T05:56:28;23.40;;;15.35;;
8819;SDS011;4446;50.876;4.736;2022-12-07T05:58:55;20.90;;;14.85;;
8819;SDS011;4446;50.876;4.736;2022-12-07T06:01:41;24.15;;;15.40;;
8819;SDS011;4446;50.876;4.736;2022-12-07T06:04:08;25.90;;;16.40;;
8819;SDS011;4446;50.876;4.736;2022-12-07T06:06:34;21.10;;;15.48;;
8819;SDS011;4446;50.876;4.736;2022-12-07T06:09:02;22.92;;;15.63;;
8819;SDS011;4446;50.876;4.736;2022-12-07T06:11:29;20.52;;;15.18;;
8819;SDS011;4446;50.876;4.736;2022-12-07T06:14:13;22.63;;;16.10;;
8819;SDS011;4446;50.876;4.736;2022-12-07T06:16:41;22.42;;;14.80;;
8819;SDS011;4446;50.876;4.736;2022-12-07T06:19:08;21.13;;;14.88;;
8819;SDS011;4446;50.876;4.736;2022-12-07T06:21:35;20.10;;;15.35;;
8819;SDS011;4446;50.876;4.736;2022-12-07T06:24:03;21.45;;;15.65;;
8819;SDS011;4446;50.876;4.736;2022-12-07T06:26:30;20.45;;;14.93;;
8819;SDS011;4446;50.876;4.736;2022-12-07T06:28:57;22.42;;;14.90;;
8819;SDS011;4446;50.876;4.736;2022-12-07T06:31:24;22.42;;;15.65;;
8819;SDS011;4446;50.876;4.736;2022-12-07T06:33:56;23.75;;;14.73;;
8819;SDS011;4446;50.876;4.736;2022-12-07T06:36:23;23.70;;;15.30;;
8819;SDS011;4446;50.876;4.736;2022-12-07T06:38:50;22.88;;;15.68;;
8819;SDS011;4446;50.876;4.736;2022-12-07T06:41:17;24.92;;;16.42;;
8819;SDS011;4446;50.876;4.736;2022-12-07T06:43:47;21.45;;;15.13;;
8819;SDS011;4446;50.876;4.736;2022-12-07T06:46:15;24.02;;;16.15;;
8819;SDS011;4446;50.876;4.736;2022-12-07T06:48:45;23.38;;;15.55;;
8819;SDS011;4446;50.876;4.736;2022-12-07T06:51:13;22.60;;;16.48;;
8819;SDS011;4446;50.876;4.736;2022-12-07T06:53:40;20.50;;;15.18;;
8819;SDS011;4446;50.876;4.736;2022-12-07T06:56:07;21.20;;;15.50;;
8819;SDS011;4446;50.876;4.736;2022-12-07T06:58:34;23.00;;;15.55;;
8819;SDS011;4446;50.876;4.736;2022-12-07T07:01:02;20.70;;;15.30;;
8819;SDS011;4446;50.876;4.736;2022-12-07T07:03:31;18.70;;;14.65;;
8819;SDS011;4446;50.876;4.736;2022-12-07T07:05:59;22.15;;;15.00;;
8819;SDS011;4446;50.876;4.736;2022-12-07T07:08:30;22.67;;;15.32;;
8819;SDS011;4446;50.876;4.736;2022-12-07T07:10:57;21.65;;;15.82;;
8819;SDS011;4446;50.876;4.736;2022-12-07T07:13:24;22.98;;;17.30;;
8819;SDS011;4446;50.876;4.736;2022-12-07T07:15:51;24.30;;;15.75;;
8819;SDS011;4446;50.876;4.736;2022-12-07T07:18:18;23.95;;;16.52;;
8819;SDS011;4446;50.876;4.736;2022-12-07T07:20:45;22.42;;;15.07;;
8819;SDS011;4446;50.876;4.736;2022-12-07T07:23:12;26.80;;;16.40;;
8819;SDS011;4446;50.876;4.736;2022-12-07T07:25:40;25.60;;;17.23;;
8819;SDS011;4446;50.876;4.736;2022-12-07T07:28:07;26.35;;;17.85;;
8819;SDS011;4446;50.876;4.736;2022-12-07T07:30:34;27.02;;;17.70;;
8819;SDS011;4446;50.876;4.736;2022-12-07T07:33:01;28.17;;;17.65;;
8819;SDS011;4446;50.876;4.736;2022-12-07T07:35:30;27.58;;;17.92;;
8819;SDS011;4446;50.876;4.736;2022-12-07T07:37:58;24.15;;;17.27;;
8819;SDS011;4446;50.876;4.736;2022-12-07T07:40:26;27.45;;;18.73;;
8819;SDS011;4446;50.876;4.736;2022-12-07T07:42:56;26.25;;;18.17;;
8819;SDS011;4446;50.876;4.736;2022-12-07T07:45:24;27.23;;;18.30;;
8819;SDS011;4446;50.876;4.736;2022-12-07T07:47:51;24.83;;;16.92;;
8819;SDS011;4446;50.876;4.736;2022-12-07T07:50:19;22.65;;;15.57;;
8819;SDS011;4446;50.876;4.736;2022-12-07T07:52:47;25.98;;;15.43;;
8819;SDS011;4446;50.876;4.736;2022-12-07T07:55:14;22.58;;;14.30;;
8819;SDS011;4446;50.876;4.736;2022-12-07T07:57:41;20.88;;;13.02;;
8819;SDS011;4446;50.876;4.736;2022-12-07T08:00:10;20.55;;;12.57;;
8819;SDS011;4446;50.876;4.736;2022-12-07T08:02:40;21.08;;;13.10;;
8819;SDS011;4446;50.876;4.736;2022-12-07T08:05:08;16.52;;;12.27;;
8819;SDS011;4446;50.876;4.736;2022-12-07T08:07:36;17.35;;;11.77;;
8819;SDS011;4446;50.876;4.736;2022-12-07T08:10:05;15.00;;;11.25;;
8819;SDS011;4446;50.876;4.736;2022-12-07T08:12:35;15.85;;;11.63;;
8819;SDS011;4446;50.876;4.736;2022-12-07T08:15:26;15.68;;;10.45;;
8819;SDS011;4446;50.876;4.736;2022-12-07T08:17:54;16.92;;;11.30;;
8819;SDS011;4446;50.876;4.736;2022-12-07T08:20:21;16.38;;;10.43;;
8819;SDS011;4446;50.876;4.736;2022-12-07T08:22:49;23.27;;;14.63;;
8819;SDS011;4446;50.876;4.736;2022-12-07T08:25:16;22.02;;;14.13;;
8819;SDS011;4446;50.876;4.736;2022-12-07T08:27:43;19.85;;;13.55;;
8819;SDS011;4446;50.876;4.736;2022-12-07T08:30:12;18.42;;;12.15;;
8819;SDS011;4446;50.876;4.736;2022-12-07T08:32:41;16.58;;;12.50;;
8819;SDS011;4446;50.876;4.736;2022-12-07T08:35:09;19.80;;;12.60;;
8819;SDS011;4446;50.876;4.736;2022-12-07T08:37:36;21.13;;;14.30;;
8819;SDS011;4446;50.876;4.736;2022-12-07T08:40:04;21.88;;;13.35;;
8819;SDS011;4446;50.876;4.736;2022-12-07T08:42:33;18.02;;;12.27;;
8819;SDS011;4446;50.876;4.736;2022-12-07T08:45:05;20.90;;;12.45;;
8819;SDS011;4446;50.876;4.736;2022-12-07T08:47:33;19.63;;;12.82;;
8819;SDS011;4446;50.876;4.736;2022-12-07T08:50:03;19.30;;;13.85;;
8819;SDS011;4446;50.876;4.736;2022-12-07T08:52:35;19.95;;;14.20;;
8819;SDS011;4446;50.876;4.736;2022-12-07T08:55:03;20.45;;;13.93;;
8819;SDS011;4446;50.876;4.736;2022-12-07T08:57:31;20.27;;;14.38;;
8819;SDS011;4446;50.876;4.736;2022-12-07T09:00:01;22.15;;;15.27;;
8819;SDS011;4446;50.876;4.736;2022-12-07T09:02:29;24.58;;;16.00;;
8819;SDS011;4446;50.876;4.736;2022-12-07T09:04:57;27.05;;;18.45;;
8819;SDS011;4446;50.876;4.736;2022-12-07T09:07:25;25.02;;;16.95;;
8819;SDS011;4446;50.876;4.736;2022-12-07T09:09:53;29.33;;;18.65;;
8819;SDS011;4446;50.876;4.736;2022-12-07T09:12:20;27.92;;;18.48;;
8819;SDS011;4446;50.876;4.736;2022-12-07T09:14:50;28.08;;;18.02;;
8819;SDS011;4446;50.876;4.736;2022-12-07T09:17:17;24.15;;;16.98;;
8819;SDS011;4446;50.876;4.736;2022-12-07T09:19:47;27.42;;;18.50;;
8819;SDS011;4446;50.876;4.736;2022-12-07T09:22:14;27.00;;;17.17;;
8819;SDS011;4446;50.876;4.736;2022-12-07T09:24:43;25.90;;;17.40;;
8819;SDS011;4446;50.876;4.736;2022-12-07T09:27:10;24.77;;;17.65;;
8819;SDS011;4446;50.876;4.736;2022-12-07T09:29:38;26.33;;;18.10;;
8819;SDS011;4446;50.876;4.736;2022-12-07T09:32:05;28.42;;;18.23;;
8819;SDS011;4446;50.876;4.736;2022-12-07T09:34:35;26.23;;;18.10;;
8819;SDS011;4446;50.876;4.736;2022-12-07T09:37:01;30.85;;;18.98;;
8819;SDS011;4446;50.876;4.736;2022-12-07T09:39:29;28.38;;;18.52;;
8819;SDS011;4446;50.876;4.736;2022-12-07T09:42:02;29.08;;;17.98;;
8819;SDS011;4446;50.876;4.736;2022-12-07T09:44:33;30.08;;;18.13;;
8819;SDS011;4446;50.876;4.736;2022-12-07T09:47:01;27.48;;;18.15;;
8819;SDS011;4446;50.876;4.736;2022-12-07T09:49:29;25.15;;;17.92;;
8819;SDS011;4446;50.876;4.736;2022-12-07T09:52:02;26.92;;;18.35;;
8819;SDS011;4446;50.876;4.736;2022-12-07T09:54:44;28.48;;;18.30;;
8819;SDS011;4446;50.876;4.736;2022-12-07T09:57:14;26.50;;;18.75;;
8819;SDS011;4446;50.876;4.736;2022-12-07T09:59:41;30.77;;;19.35;;
8819;SDS011;4446;50.876;4.736;2022-12-07T10:02:19;25.77;;;17.15;;
8819;SDS011;4446;50.876;4.736;2022-12-07T10:05:00;26.77;;;17.73;;
8819;SDS011;4446;50.876;4.736;2022-12-07T10:07:29;23.75;;;17.20;;
8819;SDS011;4446;50.876;4.736;2022-12-07T10:09:56;29.45;;;17.50;;
8819;SDS011;4446;50.876;4.736;2022-12-07T10:12:25;24.42;;;16.90;;
8819;SDS011;4446;50.876;4.736;2022-12-07T10:14:55;21.48;;;15.68;;
8819;SDS011;4446;50.876;4.736;2022-12-07T10:17:34;22.35;;;15.52;;
8819;SDS011;4446;50.876;4.736;2022-12-07T10:22:56;20.30;;;15.00;;
8819;SDS011;4446;50.876;4.736;2022-12-07T10:25:30;23.95;;;14.68;;
8819;SDS011;4446;50.876;4.736;2022-12-07T10:28:10;22.95;;;15.20;;
8819;SDS011;4446;50.876;4.736;2022-12-07T10:30:46;18.75;;;13.90;;
8819;SDS011;4446;50.876;4.736;2022-12-07T10:36:16;19.95;;;13.65;;
8819;SDS011;4446;50.876;4.736;2022-12-07T10:38:46;20.92;;;13.77;;
8819;SDS011;4446;50.876;4.736;2022-12-07T10:41:14;22.88;;;13.82;;
8819;SDS011;4446;50.876;4.736;2022-12-07T10:43:50;22.98;;;12.70;;
8819;SDS011;4446;50.876;4.736;2022-12-07T10:46:32;19.02;;;12.45;;
8819;SDS011;4446;50.876;4.736;2022-12-07T10:52:23;15.43;;;10.80;;
8819;SDS011;4446;50.876;4.736;2022-12-07T10:55:05;15.52;;;10.80;;
8819;SDS011;4446;50.876;4.736;2022-12-07T10:57:42;15.38;;;9.88;;
8819;SDS011;4446;50.876;4.736;2022-12-07T11:00:20;15.73;;;10.02;;
8819;SDS011;4446;50.876;4.736;2022-12-07T11:06:01;13.45;;;8.73;;
8819;SDS011;4446;50.876;4.736;2022-12-07T11:08:41;15.43;;;9.05;;
8819;SDS011;4446;50.876;4.736;2022-12-07T11:11:18;11.98;;;7.65;;
8819;SDS011;4446;50.876;4.736;2022-12-07T11:13:52;12.88;;;7.18;;
8819;SDS011;4446;50.876;4.736;2022-12-07T11:16:26;10.77;;;7.03;;
8819;SDS011;4446;50.876;4.736;2022-12-07T11:19:05;11.23;;;7.03;;
8819;SDS011;4446;50.876;4.736;2022-12-07T11:21:53;10.85;;;6.90;;
8819;SDS011;4446;50.876;4.736;2022-12-07T11:24:24;12.20;;;6.18;;
8819;SDS011;4446;50.876;4.736;2022-12-07T11:27:04;10.27;;;5.40;;
8819;SDS011;4446;50.876;4.736;2022-12-07T11:29:53;7.40;;;5.70;;
8819;SDS011;4446;50.876;4.736;2022-12-07T11:32:34;7.43;;;4.82;;
8819;SDS011;4446;50.876;4.736;2022-12-07T11:35:15;7.78;;;5.15;;
8819;SDS011;4446;50.876;4.736;2022-12-07T11:37:49;12.20;;;5.45;;
8819;SDS011;4446;50.876;4.736;2022-12-07T11:40:24;11.25;;;5.38;;
8819;SDS011;4446;50.876;4.736;2022-12-07T11:42:59;9.05;;;5.68;;
8819;SDS011;4446;50.876;4.736;2022-12-07T11:45:31;8.07;;;4.65;;
8819;SDS011;4446;50.876;4.736;2022-12-07T11:48:02;9.60;;;5.40;;
8819;SDS011;4446;50.876;4.736;2022-12-07T11:50:34;8.68;;;5.45;;
8819;SDS011;4446;50.876;4.736;2022-12-07T11:53:10;9.75;;;6.22;;
8819;SDS011;4446;50.876;4.736;2022-12-07T11:55:46;10.80;;;6.28;;
8819;SDS011;4446;50.876;4.736;2022-12-07T11:58:22;9.68;;;6.55;;
8819;SDS011;4446;50.876;4.736;2022-12-07T12:01:15;15.27;;;6.95;;
8819;SDS011;4446;50.876;4.736;2022-12-07T12:03:55;8.68;;;5.30;;
8819;SDS011;4446;50.876;4.736;2022-12-07T12:06:27;8.57;;;5.00;;
8819;SDS011;4446;50.876;4.736;2022-12-07T12:08:55;8.80;;;4.72;;
8819;SDS011;4446;50.876;4.736;2022-12-07T12:11:32;7.93;;;5.30;;
8819;SDS011;4446;50.876;4.736;2022-12-07T12:14:23;10.00;;;5.25;;
8819;SDS011;4446;50.876;4.736;2022-12-07T12:20:05;8.63;;;5.10;;
8819;SDS011;4446;50.876;4.736;2022-12-07T12:22:43;9.98;;;5.18;;
8819;SDS011;4446;50.876;4.736;2022-12-07T12:25:17;11.35;;;6.28;;
8819;SDS011;4446;50.876;4.736;2022-12-07T12:27:48;9.38;;;5.28;;
8819;SDS011;4446;50.876;4.736;2022-12-07T12:33:12;7.93;;;5.78;;
8819;SDS011;4446;50.876;4.736;2022-12-07T12:35:43;9.27;;;5.55;;
8819;SDS011;4446;50.876;4.736;2022-12-07T12:38:28;10.43;;;5.25;;
8819;SDS011;4446;50.876;4.736;2022-12-07T12:40:58;8.77;;;5.45;;
8819;SDS011;4446;50.876;4.736;2022-12-07T12:55:14;7.13;;;4.57;;
8819;SDS011;4446;50.876;4.736;2022-12-07T12:57:46;6.93;;;5.10;;
8819;SDS011;4446;50.876;4.736;2022-12-07T13:00:18;7.80;;;4.20;;
8819;SDS011;4446;50.876;4.736;2022-12-07T13:02:47;9.00;;;4.18;;
8819;SDS011;4446;50.876;4.736;2022-12-07T13:05:18;7.10;;;3.72;;
8819;SDS011;4446;50.876;4.736;2022-12-07T13:07:49;5.22;;;3.45;;
8819;SDS011;4446;50.876;4.736;2022-12-07T13:10:38;8.80;;;4.75;;
8819;SDS011;4446;50.876;4.736;2022-12-07T13:22:39;8.25;;;4.93;;
8819;SDS011;4446;50.876;4.736;2022-12-07T13:25:18;9.68;;;4.57;;
8819;SDS011;4446;50.876;4.736;2022-12-07T13:27:54;7.40;;;3.70;;
8819;SDS011;4446;50.876;4.736;2022-12-07T13:30:24;6.47;;;3.65;;
8819;SDS011;4446;50.876;4.736;2022-12-07T13:32:52;7.25;;;3.70;;
8819;SDS011;4446;50.876;4.736;2022-12-07T13:35:30;8.00;;;3.90;;
8819;SDS011;4446;50.876;4.736;2022-12-07T13:38:00;8.07;;;3.85;;
8819;SDS011;4446;50.876;4.736;2022-12-07T13:40:30;5.75;;;3.92;;
8819;SDS011;4446;50.876;4.736;2022-12-07T13:43:00;5.80;;;3.55;;
8819;SDS011;4446;50.876;4.736;2022-12-07T13:45:30;5.65;;;3.30;;
8819;SDS011;4446;50.876;4.736;2022-12-07T13:48:15;6.00;;;3.38;;
8819;SDS011;4446;50.876;4.736;2022-12-07T13:50:52;5.88;;;3.20;;
8819;SDS011;4446;50.876;4.736;2022-12-07T13:53:21;6.95;;;3.50;;
8819;SDS011;4446;50.876;4.736;2022-12-07T13:55:49;6.43;;;3.90;;
8819;SDS011;4446;50.876;4.736;2022-12-07T13:58:22;5.45;;;3.63;;
8819;SDS011;4446;50.876;4.736;2022-12-07T14:00:50;6.45;;;3.00;;
8819;SDS011;4446;50.876;4.736;2022-12-07T14:03:31;7.30;;;3.78;;
8819;SDS011;4446;50.876;4.736;2022-12-07T14:06:03;5.20;;;2.92;;
8819;SDS011;4446;50.876;4.736;2022-12-07T14:08:40;4.80;;;3.20;;
8819;SDS011;4446;50.876;4.736;2022-12-07T14:11:08;6.68;;;3.50;;
8819;SDS011;4446;50.876;4.736;2022-12-07T14:13:47;5.70;;;3.45;;
8819;SDS011;4446;50.876;4.736;2022-12-07T14:16:24;5.75;;;3.72;;
8819;SDS011;4446;50.876;4.736;2022-12-07T14:18:54;7.35;;;3.58;;
8819;SDS011;4446;50.876;4.736;2022-12-07T14:21:23;4.90;;;2.95;;
8819;SDS011;4446;50.876;4.736;2022-12-07T14:24:15;6.53;;;3.00;;
8819;SDS011;4446;50.876;4.736;2022-12-07T14:26:44;6.95;;;3.00;;
8819;SDS011;4446;50.876;4.736;2022-12-07T14:29:21;3.30;;;2.45;;
8819;SDS011;4446;50.876;4.736;2022-12-07T14:31:49;4.00;;;2.50;;
8819;SDS011;4446;50.876;4.736;2022-12-07T14:34:16;4.65;;;2.70;;
8819;SDS011;4446;50.876;4.736;2022-12-07T14:36:45;5.82;;;2.60;;
8819;SDS011;4446;50.876;4.736;2022-12-07T14:39:12;5.43;;;2.53;;
8819;SDS011;4446;50.876;4.736;2022-12-07T14:41:39;5.75;;;2.67;;
8819;SDS011;4446;50.876;4.736;2022-12-07T14:44:18;9.27;;;2.80;;
8819;SDS011;4446;50.876;4.736;2022-12-07T14:46:48;5.10;;;3.38;;
8819;SDS011;4446;50.876;4.736;2022-12-07T14:49:16;6.85;;;3.58;;
8819;SDS011;4446;50.876;4.736;2022-12-07T14:51:44;5.65;;;3.88;;
8819;SDS011;4446;50.876;4.736;2022-12-07T14:54:14;5.32;;;3.97;;
8819;SDS011;4446;50.876;4.736;2022-12-07T14:56:44;5.78;;;3.58;;
8819;SDS011;4446;50.876;4.736;2022-12-07T14:59:14;4.32;;;3.30;;
8819;SDS011;4446;50.876;4.736;2022-12-07T15:01:43;6.38;;;3.95;;
8819;SDS011;4446;50.876;4.736;2022-12-07T15:04:11;7.18;;;4.32;;
8819;SDS011;4446;50.876;4.736;2022-12-07T15:06:38;5.15;;;4.28;;
8819;SDS011;4446;50.876;4.736;2022-12-07T15:09:09;7.55;;;4.00;;
8819;SDS011;4446;50.876;4.736;2022-12-07T15:11:36;6.10;;;4.72;;
8819;SDS011;4446;50.876;4.736;2022-12-07T15:14:03;5.90;;;5.05;;
8819;SDS011;4446;50.876;4.736;2022-12-07T15:16:38;5.25;;;4.75;;
8819;SDS011;4446;50.876;4.736;2022-12-07T15:19:10;4.93;;;4.05;;
8819;SDS011;4446;50.876;4.736;2022-12-07T15:21:39;7.43;;;4.88;;
8819;SDS011;4446;50.876;4.736;2022-12-07T15:24:08;5.50;;;4.80;;
8819;SDS011;4446;50.876;4.736;2022-12-07T15:26:36;4.40;;;3.40;;
8819;SDS011;4446;50.876;4.736;2022-12-07T15:29:03;5.72;;;3.80;;
8819;SDS011;4446;50.876;4.736;2022-12-07T15:31:31;5.18;;;3.80;;
8819;SDS011;4446;50.876;4.736;2022-12-07T15:33:59;5.93;;;4.03;;
8819;SDS011;4446;50.876;4.736;2022-12-07T15:36:27;6.10;;;4.15;;
8819;SDS011;4446;50.876;4.736;2022-12-07T15:38:56;6.15;;;3.80;;
8819;SDS011;4446;50.876;4.736;2022-12-07T15:41:23;4.63;;;3.58;;
8819;SDS011;4446;50.876;4.736;2022-12-07T15:43:52;6.05;;;3.83;;
8819;SDS011;4446;50.876;4.736;2022-12-07T15:46:37;7.05;;;4.45;;
8819;SDS011;4446;50.876;4.736;2022-12-07T15:49:09;5.45;;;4.25;;
8819;SDS011;4446;50.876;4.736;2022-12-07T15:51:39;4.80;;;4.20;;
8819;SDS011;4446;50.876;4.736;2022-12-07T15:54:11;6.78;;;4.82;;
8819;SDS011;4446;50.876;4.736;2022-12-07T15:56:45;6.50;;;4.63;;
8819;SDS011;4446;50.876;4.736;2022-12-07T15:59:13;6.22;;;4.82;;
8819;SDS011;4446;50.876;4.736;2022-12-07T16:01:41;6.38;;;4.35;;